If you wish to contribute or participate in the discussions about articles you are invited to join SKYbrary as a registered user

 Actions

Oita Airport

From SKYbrary Wiki

RJFO
Airport
ICAO: RJFO – IATA: OIT
Summary
Name Oita Airport
Region Asia and Pacific
Territory Japan JP.gif
Location Kunisaki, Oita Prefecture, Kyushu
Serving Oita
Elevation 5.182 m
17 ft5.182 m
Coordinates 33° 28' 35.07" N, 131° 43' 57.57" E
Runways
Designator Length Width Surface ROPS
1/19 2999 m9,839.239 ft
46 m150.919 ft
ASP yes/yes


METAR
Observation RJFO 111000Z 32004KT 9999 FEW050 BKN090 12/06 Q1012
Station Oita Airport
Date/Time 11 April 2019 10:00:00
Wind direction 320°
Wind speed 04 kts
Lowest cloud amount few clouds
Temperature 12°C
Dew point 6°C
Humidity 66%
QNH 1012 hPa
Weather condition n/a

Airport in Kunisaki, Ōita, Japan, 30km16.199 nm
30,000 m
98,425.197 ft
northeast of Ōita.

Climatology

Humid Sub-tropical climate (Köppen climate classification Cfa)

Maps

Terrain

Loading map...

Airport Layout

Loading map...


Accidents & Serious Incidents at or in vicinity of RJFO

None on SKYbrary